»·PEaware :: N420MD KSJC-KLAS

N420MD :: KSJC-KLAS

FLIGHT INFORMATION

Flight Status: Arrived
Operator: Privately registered:
United States
More flights under this callsign
Pilot: Anonymous 1753 (1753)
Aircraft: CANADAIR CL-600 CHALLENGER
(CL60)
More flights by this aircraft type
Origin: KSJC Mineta San Jose Intl
United States
Destination: KLAS Harry Reid Intl
United States
More flights between these airports :: More routes between these airports
Route: SPTNS1 TECKY NTELL Q174 FLCHR COKTL3
File this flight plan on PilotEdge
Remarks: RMK / SIMBRIEF
Altitude:
(Current/Filed)
37,000ft
Speed:
(Current/Filed)
457kts
Departed: 27-Nov-23 12:42 PM
Arrived: 27-Nov-23 01:51 PM
Distance/Time
Traveled:
334nm/1:09
Distance/Time
To Go:
Arrived

Flight Plot

Page will automatically refresh every two minutes.

Flight plan parsing failed; only flown route is shown


Map Options




Map Legend


Flown Route
Filed Route
Departure Airport
Arrival Airport
Navaid (VOR, NDB)
Fix

Horizontal Profiles

Position Reports

Time Latitude Longitude Heading Altitude Ground
Speed
27-Nov-23 12:05 37.357850 -121.930012 334 58ft 0kts
27-Nov-23 12:06 37.357850 -121.930012 334 58ft 0kts
27-Nov-23 12:07 37.357850 -121.930012 334 58ft 0kts
27-Nov-23 12:08 37.357850 -121.930012 334 58ft 0kts
27-Nov-23 12:09 37.357850 -121.930012 334 58ft 0kts
27-Nov-23 12:10 37.357850 -121.930012 334 58ft 0kts
27-Nov-23 12:11 37.357850 -121.930012 334 58ft 0kts
27-Nov-23 12:12 37.357850 -121.930012 334 58ft 0kts
27-Nov-23 12:13 37.357850 -121.930012 334 58ft 0kts
27-Nov-23 12:14 37.357850 -121.930012 334 58ft 0kts
27-Nov-23 12:15 37.357850 -121.930012 334 58ft 0kts
27-Nov-23 12:16 37.357850 -121.930012 334 58ft 0kts
27-Nov-23 12:17 37.357850 -121.930012 334 58ft 0kts
27-Nov-23 12:18 37.357850 -121.930012 334 58ft 0kts
27-Nov-23 12:19 37.357850 -121.930012 334 58ft 0kts
27-Nov-23 12:20 37.357850 -121.930012 334 58ft 0kts
27-Nov-23 12:21 37.357850 -121.930012 334 58ft 0kts
27-Nov-23 12:22 37.357850 -121.930012 334 58ft 0kts
27-Nov-23 12:23 37.357850 -121.930012 334 58ft 0kts
27-Nov-23 12:24 37.357850 -121.930012 334 58ft 0kts
27-Nov-23 12:25 37.357850 -121.930012 334 58ft 0kts
27-Nov-23 12:26 37.357850 -121.930012 334 58ft 0kts
27-Nov-23 12:27 37.357850 -121.930012 334 58ft 0kts
27-Nov-23 12:28 37.357850 -121.930012 334 58ft 0kts
27-Nov-23 12:29 37.357850 -121.930012 334 58ft 0kts
27-Nov-23 12:30 37.357850 -121.930012 334 58ft 0kts
27-Nov-23 12:31 37.357850 -121.930012 334 58ft 0kts
27-Nov-23 12:32 37.357850 -121.930012 334 58ft 0kts
27-Nov-23 12:33 37.357850 -121.930012 334 58ft 0kts
27-Nov-23 12:34 37.357850 -121.930012 334 58ft 0kts
27-Nov-23 12:35 37.357850 -121.930013 334 58ft 0kts
27-Nov-23 12:36 37.358255 -121.929371 138 57ft 8kts
27-Nov-23 12:37 37.356156 -121.926620 61 60ft 12kts
27-Nov-23 12:38 37.354258 -121.922618 138 62ft 16kts
27-Nov-23 12:39 37.352131 -121.920141 107 64ft 6kts
27-Nov-23 12:40 37.353325 -121.919614 319 64ft 0kts
27-Nov-23 12:41 37.384515 -121.950077 324 2857ft 208kts
27-Nov-23 12:42 37.447649 -121.986902 2 6258ft 268kts
27-Nov-23 12:43 37.479308 -121.929558 127 6017ft 209kts
27-Nov-23 12:44 37.429139 -121.900157 144 6023ft 204kts
27-Nov-23 12:45 37.385720 -121.853156 139 6034ft 213kts
27-Nov-23 12:46 37.340455 -121.801636 138 11826ft 219kts
27-Nov-23 12:47 37.294765 -121.749583 138 16526ft 236kts
27-Nov-23 12:48 37.241937 -121.689762 139 19236ft 306kts
27-Nov-23 12:49 37.176185 -121.615409 139 19275ft 318kts
27-Nov-23 12:50 37.109715 -121.540378 138 19658ft 336kts
27-Nov-23 12:51 37.060004 -121.445106 99 23651ft 348kts
27-Nov-23 12:52 37.047919 -121.319466 100 26443ft 380kts
27-Nov-23 12:53 37.034494 -121.182654 99 28674ft 412kts
27-Nov-23 12:54 37.020319 -121.039697 97 31360ft 417kts
27-Nov-23 12:55 37.005766 -120.893863 97 33519ft 425kts
27-Nov-23 12:56 36.990769 -120.745889 97 35207ft 435kts
27-Nov-23 12:57 36.975222 -120.594845 97 36907ft 437kts
27-Nov-23 12:58 36.959004 -120.439385 97 37166ft 470kts
27-Nov-23 12:59 36.941287 -120.271981 97 37167ft 495kts
27-Nov-23 13:00 36.923011 -120.101557 97 37178ft 495kts
27-Nov-23 13:01 36.908007 -119.930426 87 37183ft 496kts
27-Nov-23 13:02 36.942111 -119.764647 65 37165ft 497kts
27-Nov-23 13:03 36.994044 -119.603960 65 37195ft 497kts
27-Nov-23 13:04 37.045727 -119.443867 65 37172ft 496kts
27-Nov-23 13:05 37.097191 -119.283922 66 37180ft 495kts
27-Nov-23 13:06 37.148617 -119.123429 66 37214ft 495kts
27-Nov-23 13:07 37.199693 -118.963270 66 37181ft 494kts
27-Nov-23 13:08 37.250436 -118.803143 67 37155ft 494kts
27-Nov-23 13:09 37.283329 -118.635546 82 37150ft 495kts
27-Nov-23 13:10 37.296660 -118.463854 83 37196ft 493kts
27-Nov-23 13:11 37.309536 -118.291975 84 37147ft 492kts
27-Nov-23 13:12 37.322116 -118.121062 84 37144ft 491kts
27-Nov-23 13:13 37.334477 -117.949779 84 37121ft 490kts
27-Nov-23 13:14 37.346515 -117.779431 84 37140ft 489kts
27-Nov-23 13:15 37.358327 -117.609075 84 37128ft 489kts
27-Nov-23 13:16 37.369848 -117.439221 84 37070ft 487kts
27-Nov-23 13:17 37.355185 -117.271327 112 37051ft 484kts
27-Nov-23 13:18 37.279861 -117.133438 132 36933ft 483kts
27-Nov-23 13:19 37.194644 -117.010550 133 35291ft 456kts
27-Nov-23 13:20 37.110485 -116.891627 134 33254ft 453kts
27-Nov-23 13:21 37.013146 -116.798787 146 30503ft 437kts
27-Nov-23 13:22 36.914062 -116.714745 147 27656ft 419kts
27-Nov-23 13:23 36.820556 -116.635030 145 25389ft 393kts
27-Nov-23 13:24 36.731748 -116.559371 144 22797ft 379kts
27-Nov-23 13:25 36.650064 -116.489743 142 21584ft 333kts
27-Nov-23 13:26 36.589502 -116.404819 130 21360ft 328kts
27-Nov-23 13:27 36.529217 -116.318621 132 21363ft 329kts
27-Nov-23 13:28 36.468160 -116.232412 133 21352ft 334kts
27-Nov-23 13:29 36.405983 -116.145169 133 20334ft 333kts
27-Nov-23 13:30 36.345147 -116.059965 133 18355ft 324kts
27-Nov-23 13:31 36.286197 -115.977566 132 16527ft 312kts
27-Nov-23 13:32 36.230360 -115.896242 128 16132ft 308kts
27-Nov-23 13:33 36.178652 -115.813960 128 14409ft 300kts
27-Nov-23 13:34 36.121789 -115.743145 159 13985ft 286kts
27-Nov-23 13:35 36.045623 -115.712817 160 12293ft 284kts
27-Nov-23 13:36 35.971548 -115.683002 160 11083ft 263kts
27-Nov-23 13:37 35.904980 -115.655988 159 10343ft 240kts
27-Nov-23 13:38 35.842407 -115.630504 159 10058ft 233kts
27-Nov-23 13:39 35.796883 -115.575059 127 10049ft 233kts
27-Nov-23 13:40 35.756958 -115.511302 110 10000ft 234kts
27-Nov-23 13:41 35.753309 -115.431322 91 9270ft 231kts
27-Nov-23 13:42 35.787779 -115.369036 42 8467ft 231kts
27-Nov-23 13:43 35.836132 -115.317455 42 7763ft 230kts
27-Nov-23 13:44 35.885749 -115.277693 25 6903ft 200kts
27-Nov-23 13:45 35.935411 -115.250187 25 5850ft 192kts
27-Nov-23 13:46 35.978861 -115.225463 25 4627ft 142kts
27-Nov-23 13:47 36.014684 -115.205051 24 3744ft 140kts
27-Nov-23 13:48 36.050274 -115.184815 23 2883ft 139kts
27-Nov-23 13:49 36.084367 -115.165274 22 2150ft 98kts
27-Nov-23 13:50 36.089309 -115.163238 291 2132ft 0kts
27-Nov-23 13:51 36.090664 -115.164057 27 2131ft 14kts
27-Nov-23 13:52 36.096350 -115.160748 23 2105ft 26kts
27-Nov-23 13:53 36.099294 -115.160478 18 2101ft 12kts
27-Nov-23 13:54 36.099878 -115.159983 49 2098ft 0kts
27-Nov-23 13:56 36.099878 -115.159983 49 2098ft 0kts
27-Nov-23 13:57 36.099878 -115.159983 49 2098ft 0kts
27-Nov-23 13:58 36.099878 -115.159983 49 2098ft 0kts
27-Nov-23 13:59 36.099878 -115.159983 49 2098ft 0kts
27-Nov-23 14:00 36.099878 -115.159983 49 2098ft 0kts
27-Nov-23 14:01 36.099878 -115.159983 49 2098ft 0kts

Navigation Log

Ident Type
Flight plan parsing failed, navigation log unavailable